Time;durP1;ratioP1;P1;durP2;ratioP2;P2;SDS_P1;SDS_P2;PMS_P1;PMS_P2;Temp;Humidity;BMP_temperature;BMP_pressure;BME280_temperature;BME280_humidity;BME280_pressure;Samples;Min_cycle;Max_cycle;Signal;HPM_P1;HPM_P2
2022/12/18 00:02:21;;;;;;;;;;;;;;;5.52;44.75;100918.81;4343114;32;33679;-65
2022/12/18 00:04:49;;;;;;;;;;;;;;;5.45;44.90;100926.13;4353090;32;33302;-64
2022/12/18 00:07:16;;;;;;;;;;;;;;;5.65;44.57;100932.53;4355242;32;33309;-66
2022/12/18 00:09:43;;;;;;;;;;;;;;;5.29;44.99;100932.88;4359124;32;34427;-64
2022/12/18 00:12:11;;;;;;;;;;;;;;;4.82;46.07;100936.22;4355365;32;33858;-65
2022/12/18 00:14:44;;;;;;;;;;;;;;;5.52;44.23;100937.41;4352345;32;32597;-65
2022/12/18 00:17:12;;;;;;;;;;;;;;;5.17;44.79;100950.13;4356719;32;34390;-64
2022/12/18 00:19:39;;;;;;;;;;;;;;;5.50;43.75;100955.19;4358047;32;34352;-64
2022/12/18 00:22:06;;;;;;;;;;;;;;;5.20;44.82;100952.66;4355526;32;34049;-64
2022/12/18 00:24:34;;;;;;;;;;;;;;;4.54;46.04;100961.84;4359303;32;33024;-66
2022/12/18 00:27:01;;;;;;;;;;;;;;;4.06;49.22;100973.00;4356635;32;33217;-64
2022/12/18 00:29:29;;;;;;;;;;;;;;;4.36;47.35;100971.22;4358797;32;34037;-64
2022/12/18 00:31:56;;;;;;;;;;;;;;;4.03;47.58;100983.66;4358056;32;33409;-64
2022/12/18 00:34:23;;;;;;;;;;;;;;;3.70;49.02;100979.25;4356487;32;34256;-64
2022/12/18 00:36:51;;;;;;;;;;;;;;;3.57;49.08;100976.97;4359758;32;34012;-66
2022/12/18 00:39:19;;;;;;;;;;;;;;;4.25;47.83;100976.84;4358851;32;34070;-64
2022/12/18 00:44:32;;;;;;;;;;;;;;;3.89;49.14;100979.63;4361094;32;33405;-66
2022/12/18 00:46:59;;;;;;;;;;;;;;;4.48;46.63;100983.25;4361179;32;34031;-67
2022/12/18 00:49:26;;;;;;;;;;;;;;;4.31;47.34;100981.09;4360439;32;33014;-64
2022/12/18 00:51:54;;;;;;;;;;;;;;;4.28;49.53;100981.19;4359624;32;32911;-64
2022/12/18 00:54:21;;;;;;;;;;;;;;;4.44;46.86;100995.72;4358459;32;33498;-68
2022/12/18 00:56:49;;;;;;;;;;;;;;;4.50;46.97;100997.34;4358688;32;34915;-64
2022/12/18 00:59:17;;;;;;;;;;;;;;;4.60;46.78;100996.16;4357775;32;35190;-65
2022/12/18 01:01:45;;;;;;;;;;;;;;;4.89;46.10;100996.09;4355953;32;34443;-63
2022/12/18 01:04:12;;;;;;;;;;;;;;;4.55;46.96;100995.41;4357417;32;32248;-63
2022/12/18 01:06:40;;;;;;;;;;;;;;;4.76;47.19;101000.06;4356167;32;34764;-63
2022/12/18 01:09:07;;;;;;;;;;;;;;;4.62;47.48;101002.25;4351363;32;34167;-63
2022/12/18 01:11:36;;;;;;;;;;;;;;;4.96;45.42;101001.22;4357310;32;33728;-66
2022/12/18 01:14:04;;;;;;;;;;;;;;;4.72;47.09;101009.03;4357974;32;33549;-64
2022/12/18 01:16:31;;;;;;;;;;;;;;;3.94;49.14;101003.31;4356039;32;33732;-63
2022/12/18 01:18:58;;;;;;;;;;;;;;;4.38;47.79;101011.81;4353450;32;34259;-63
2022/12/18 01:21:26;;;;;;;;;;;;;;;4.57;47.81;101015.66;4353930;32;34343;-64
2022/12/18 01:23:54;;;;;;;;;;;;;;;4.78;46.44;101022.09;4356821;32;34367;-65
2022/12/18 01:26:23;;;;;;;;;;;;;;;4.94;46.48;101021.62;4356174;32;35279;-64
2022/12/18 01:28:50;;;;;;;;;;;;;;;5.04;45.70;101021.31;4355216;32;34152;-63
2022/12/18 01:31:20;;;;;;;;;;;;;;;4.84;46.30;101021.03;4354530;32;32614;-64
2022/12/18 01:33:47;;;;;;;;;;;;;;;5.14;45.22;101022.75;4356771;32;33324;-63
2022/12/18 01:36:19;;;;;;;;;;;;;;;4.61;47.49;101035.88;4356846;32;32849;-64
2022/12/18 01:38:46;;;;;;;;;;;;;;;4.86;45.56;101032.47;4354204;32;34310;-64
2022/12/18 01:41:14;;;;;;;;;;;;;;;5.12;45.21;101035.19;4357345;32;33790;-65
2022/12/18 01:43:46;;;;;;;;;;;;;;;5.38;44.36;101037.00;4344851;33;31802;-66
2022/12/18 01:46:13;;;;;;;;;;;;;;;5.32;44.08;101053.13;4353646;32;33701;-64
2022/12/18 01:48:40;;;;;;;;;;;;;;;4.95;44.83;101045.47;4355934;32;34825;-66
2022/12/18 01:51:09;;;;;;;;;;;;;;;5.18;44.61;101050.06;4355260;32;34366;-65
2022/12/18 01:53:36;;;;;;;;;;;;;;;5.24;44.40;101055.16;4334072;32;33296;-64
2022/12/18 01:56:04;;;;;;;;;;;;;;;5.18;44.72;101063.31;4354110;32;32498;-65
2022/12/18 01:59:04;;;;;;;;;;;;;;;5.07;45.36;101060.13;4347763;32;34307;-63
2022/12/18 02:01:31;;;;;;;;;;;;;;;5.15;45.23;101055.47;4318281;32;33992;-64
2022/12/18 02:04:33;;;;;;;;;;;;;;;5.36;44.44;101053.87;4356123;32;33446;-66
2022/12/18 02:07:01;;;;;;;;;;;;;;;5.69;43.66;101051.94;4322782;32;34506;-64
2022/12/18 02:09:31;;;;;;;;;;;;;;;5.76;43.06;101056.09;4357746;32;32752;-64
2022/12/18 02:12:01;;;;;;;;;;;;;;;5.72;42.89;101057.13;4347538;32;32690;-64
2022/12/18 02:14:38;;;;;;;;;;;;;;;5.50;43.67;101070.25;4355912;32;33816;-65
2022/12/18 02:17:11;;;;;;;;;;;;;;;5.29;44.04;101062.97;4347345;32;34087;-65
2022/12/18 02:19:57;;;;;;;;;;;;;;;5.23;44.04;101065.81;4352573;32;35164;-66
2022/12/18 02:22:27;;;;;;;;;;;;;;;5.32;43.63;101061.09;4353000;32;32972;-65
2022/12/18 02:24:59;;;;;;;;;;;;;;;5.30;43.98;101068.25;4355800;32;33007;-66
2022/12/18 02:27:28;;;;;;;;;;;;;;;5.02;44.54;101076.19;4330746;32;796521;-68
2022/12/18 02:29:55;;;;;;;;;;;;;;;5.42;43.78;101079.38;4354170;32;34909;-64
2022/12/18 02:32:27;;;;;;;;;;;;;;;5.48;43.60;101079.19;4343344;32;35120;-64
2022/12/18 02:34:55;;;;;;;;;;;;;;;5.33;43.83;101086.72;4340676;32;34390;-65
2022/12/18 02:37:23;;;;;;;;;;;;;;;5.63;43.01;101088.44;4341888;32;32843;-65
2022/12/18 02:39:51;;;;;;;;;;;;;;;5.30;43.76;101083.31;4355461;32;32753;-65
2022/12/18 02:42:20;;;;;;;;;;;;;;;5.58;43.15;101097.41;4342446;32;32852;-66
2022/12/18 02:44:49;;;;;;;;;;;;;;;5.75;42.56;101094.22;4352013;32;32985;-67
2022/12/18 02:47:17;;;;;;;;;;;;;;;5.52;43.08;101102.06;4354778;32;35331;-64
2022/12/18 02:49:57;;;;;;;;;;;;;;;5.66;42.98;101093.66;4356528;32;34699;-64
2022/12/18 02:52:41;;;;;;;;;;;;;;;5.73;42.74;101090.75;4354505;32;33913;-66
2022/12/18 02:55:16;;;;;;;;;;;;;;;5.66;43.00;101094.53;4351017;32;34551;-68
2022/12/18 02:57:51;;;;;;;;;;;;;;;5.46;42.76;101102.28;4353689;32;35238;-64
2022/12/18 03:00:21;;;;;;;;;;;;;;;5.53;42.95;101106.47;4341832;32;32759;-64
2022/12/18 03:02:49;;;;;;;;;;;;;;;5.55;43.05;101102.84;4333497;32;34604;-65
2022/12/18 03:05:17;;;;;;;;;;;;;;;5.50;42.95;101104.78;4353455;32;32847;-68
2022/12/18 03:07:44;;;;;;;;;;;;;;;5.59;42.65;101119.56;4352062;32;33947;-66
2022/12/18 03:10:13;;;;;;;;;;;;;;;5.54;42.95;101116.16;4355563;32;33074;-64
2022/12/18 03:12:43;;;;;;;;;;;;;;;5.82;41.83;101124.97;4343145;32;34186;-65
2022/12/18 03:15:15;;;;;;;;;;;;;;;5.59;42.44;101128.37;4353667;32;32417;-66
2022/12/18 03:17:58;;;;;;;;;;;;;;;5.66;42.24;101126.41;4355654;32;33744;-65
2022/12/18 03:20:25;;;;;;;;;;;;;;;5.82;41.91;101127.63;4339151;32;34220;-65
2022/12/18 03:22:55;;;;;;;;;;;;;;;5.78;42.14;101133.13;4352549;32;34941;-67
2022/12/18 03:25:22;;;;;;;;;;;;;;;5.70;42.26;101129.81;4346490;32;32822;-64
2022/12/18 03:27:54;;;;;;;;;;;;;;;5.57;42.16;101132.88;4357728;32;35225;-66
2022/12/18 03:30:21;;;;;;;;;;;;;;;5.73;41.68;101145.66;4354354;32;34968;-66
2022/12/18 03:32:50;;;;;;;;;;;;;;;5.65;41.89;101145.03;4354181;32;33054;-66
2022/12/18 03:35:20;;;;;;;;;;;;;;;5.71;41.84;101160.78;4350692;32;34844;-66
2022/12/18 03:37:48;;;;;;;;;;;;;;;5.83;41.67;101155.94;4339410;32;34054;-65
2022/12/18 03:40:15;;;;;;;;;;;;;;;5.97;41.37;101160.84;4351504;32;34347;-66
2022/12/18 03:42:45;;;;;;;;;;;;;;;5.92;41.21;101168.06;4352623;32;34526;-64
2022/12/18 03:45:25;;;;;;;;;;;;;;;5.91;41.10;101162.81;4353698;32;33221;-63
2022/12/18 03:48:06;;;;;;;;;;;;;;;5.83;41.27;101161.25;4353169;32;35278;-66
2022/12/18 03:50:34;;;;;;;;;;;;;;;5.75;41.39;101168.63;4355013;32;34196;-64
2022/12/18 03:53:17;;;;;;;;;;;;;;;5.73;41.50;101159.81;4354665;32;35150;-64
2022/12/18 03:55:45;;;;;;;;;;;;;;;5.74;41.41;101174.81;4352207;32;33564;-65
2022/12/18 03:58:13;;;;;;;;;;;;;;;5.58;42.07;101177.09;4355766;32;34787;-65
2022/12/18 04:00:40;;;;;;;;;;;;;;;5.51;42.00;101175.56;4349110;32;34217;-67
2022/12/18 04:03:08;;;;;;;;;;;;;;;5.38;42.22;101171.53;4351017;32;35515;-63
2022/12/18 04:05:36;;;;;;;;;;;;;;;5.67;41.41;101180.38;4347288;32;34103;-69
2022/12/18 04:08:04;;;;;;;;;;;;;;;5.68;41.56;101171.50;4355371;32;33797;-65
2022/12/18 04:10:35;;;;;;;;;;;;;;;5.65;41.50;101177.81;4355637;32;33985;-65
2022/12/18 04:13:03;;;;;;;;;;;;;;;5.29;42.55;101185.97;4358186;32;33360;-65
2022/12/18 04:15:31;;;;;;;;;;;;;;;5.36;42.11;101181.31;4354562;32;32722;-64
2022/12/18 04:17:58;;;;;;;;;;;;;;;5.45;42.18;101186.37;4349313;32;33812;-68
2022/12/18 04:20:31;;;;;;;;;;;;;;;5.38;42.45;101183.03;4355888;32;34184;-64
2022/12/18 04:22:58;;;;;;;;;;;;;;;5.52;41.74;101185.28;4352862;32;35108;-66
2022/12/18 04:25:26;;;;;;;;;;;;;;;5.61;41.55;101186.75;4357785;32;33752;-66
2022/12/18 04:27:54;;;;;;;;;;;;;;;5.32;42.41;101191.19;4357749;32;33733;-67
2022/12/18 04:30:22;;;;;;;;;;;;;;;5.40;42.07;101190.09;4358024;32;34033;-65
2022/12/18 04:32:49;;;;;;;;;;;;;;;5.60;41.45;101193.00;4356958;32;32726;-67
2022/12/18 04:35:19;;;;;;;;;;;;;;;5.50;41.70;101195.06;4356416;32;34379;-66
2022/12/18 04:37:46;;;;;;;;;;;;;;;5.44;42.57;101200.56;4356251;32;32336;-66
2022/12/18 04:40:14;;;;;;;;;;;;;;;5.20;43.38;101204.84;4357101;32;34021;-66
2022/12/18 04:42:42;;;;;;;;;;;;;;;5.38;42.92;101211.38;4353439;32;35153;-66
2022/12/18 04:45:09;;;;;;;;;;;;;;;5.57;42.26;101212.56;4352230;32;32175;-66
2022/12/18 04:47:37;;;;;;;;;;;;;;;5.61;41.42;101222.16;4355837;32;32889;-67
2022/12/18 04:50:04;;;;;;;;;;;;;;;5.72;40.94;101220.97;4356537;32;35351;-68
2022/12/18 04:52:32;;;;;;;;;;;;;;;5.88;40.14;101226.69;4353441;32;34403;-66
2022/12/18 04:54:59;;;;;;;;;;;;;;;5.83;40.06;101226.81;4356762;32;33167;-65
2022/12/18 04:57:26;;;;;;;;;;;;;;;5.73;40.32;101231.53;4354838;32;33732;-67
2022/12/18 04:59:53;;;;;;;;;;;;;;;5.54;41.60;101241.00;4355071;32;35663;-68
2022/12/18 05:02:21;;;;;;;;;;;;;;;5.59;41.05;101241.75;4360003;32;34165;-66
2022/12/18 05:04:48;;;;;;;;;;;;;;;5.62;40.26;101236.34;4354566;32;33833;-68
2022/12/18 05:07:15;;;;;;;;;;;;;;;5.46;40.08;101249.19;4354569;32;33869;-67
2022/12/18 05:09:43;;;;;;;;;;;;;;;5.42;40.26;101249.31;4352341;32;34224;-65
2022/12/18 05:12:11;;;;;;;;;;;;;;;5.20;41.11;101255.28;4350600;32;33780;-66
2022/12/18 05:14:38;;;;;;;;;;;;;;;5.15;41.90;101246.56;4356373;32;32154;-64
2022/12/18 05:17:06;;;;;;;;;;;;;;;5.18;41.96;101250.91;4353311;32;34227;-64
2022/12/18 05:19:33;;;;;;;;;;;;;;;5.29;41.97;101241.72;4359143;32;35094;-64
2022/12/18 05:22:01;;;;;;;;;;;;;;;5.33;41.08;101250.47;4357033;32;34243;-64
2022/12/18 05:24:28;;;;;;;;;;;;;;;5.20;41.95;101249.97;4358585;32;34033;-64
2022/12/18 05:26:55;;;;;;;;;;;;;;;4.80;43.81;101259.00;4358244;32;35350;-67
2022/12/18 05:29:23;;;;;;;;;;;;;;;4.93;42.61;101262.19;4356534;32;35408;-63
2022/12/18 05:31:50;;;;;;;;;;;;;;;5.00;42.75;101258.47;4357930;32;35217;-63
2022/12/18 05:34:17;;;;;;;;;;;;;;;5.38;41.27;101260.03;4357287;32;31620;-64
2022/12/18 05:36:45;;;;;;;;;;;;;;;5.40;41.14;101253.81;4357636;32;35069;-67
2022/12/18 05:39:12;;;;;;;;;;;;;;;5.00;41.91;101257.59;4354252;32;34310;-63
2022/12/18 05:41:39;;;;;;;;;;;;;;;5.27;41.93;101261.28;4357619;32;34327;-64
2022/12/18 05:44:07;;;;;;;;;;;;;;;5.30;41.71;101270.03;4354438;32;32062;-64
2022/12/18 05:46:34;;;;;;;;;;;;;;;5.44;40.70;101268.75;4358299;32;34202;-64
2022/12/18 05:49:02;;;;;;;;;;;;;;;5.51;40.24;101276.47;4354664;32;35505;-62
2022/12/18 05:51:30;;;;;;;;;;;;;;;5.36;39.99;101279.56;4356433;32;34592;-63
2022/12/18 05:53:57;;;;;;;;;;;;;;;5.31;40.03;101277.06;4354343;32;34404;-63
2022/12/18 05:56:24;;;;;;;;;;;;;;;5.21;40.85;101283.56;4358369;32;34223;-67
2022/12/18 05:58:52;;;;;;;;;;;;;;;5.21;41.13;101286.19;4353776;32;35230;-63
2022/12/18 06:01:24;;;;;;;;;;;;;;;5.21;40.43;101286.19;4357357;32;33614;-66
2022/12/18 06:03:51;;;;;;;;;;;;;;;5.12;40.59;101283.81;4354551;32;34269;-63
2022/12/18 06:06:20;;;;;;;;;;;;;;;5.14;41.33;101289.94;4356786;32;33904;-64
2022/12/18 06:08:47;;;;;;;;;;;;;;;5.12;41.03;101292.62;4352860;32;35386;-67
2022/12/18 06:11:17;;;;;;;;;;;;;;;5.04;41.14;101299.94;4356467;32;34409;-65
2022/12/18 06:13:44;;;;;;;;;;;;;;;4.92;41.62;101296.75;4354586;32;33234;-64
2022/12/18 06:16:11;;;;;;;;;;;;;;;4.97;41.47;101295.69;4355490;32;34419;-64
2022/12/18 06:18:39;;;;;;;;;;;;;;;4.80;41.09;101300.59;4356188;32;32938;-63
2022/12/18 06:21:06;;;;;;;;;;;;;;;4.86;40.53;101303.94;4356529;32;34161;-64
2022/12/18 06:23:33;;;;;;;;;;;;;;;4.24;43.75;101305.50;4357461;32;33500;-64
2022/12/18 06:26:05;;;;;;;;;;;;;;;4.67;42.80;101308.84;4351105;32;34604;-62
2022/12/18 06:28:32;;;;;;;;;;;;;;;5.04;41.71;101309.66;4356700;32;34987;-64
2022/12/18 06:30:59;;;;;;;;;;;;;;;4.61;43.88;101310.78;4353074;32;32782;-64
2022/12/18 06:33:27;;;;;;;;;;;;;;;5.12;41.18;101326.28;4352541;32;33443;-66
2022/12/18 06:36:00;;;;;;;;;;;;;;;5.06;41.02;101329.09;4355422;32;33985;-63
2022/12/18 06:38:27;;;;;;;;;;;;;;;5.09;40.74;101327.22;4354914;32;33009;-66
2022/12/18 06:40:54;;;;;;;;;;;;;;;5.10;41.09;101341.34;4356897;32;33639;-65
2022/12/18 06:43:22;;;;;;;;;;;;;;;4.93;42.82;101335.63;4354151;32;33056;-64
2022/12/18 06:45:52;;;;;;;;;;;;;;;5.31;41.13;101339.91;4356761;32;34174;-64
2022/12/18 06:48:19;;;;;;;;;;;;;;;5.65;39.98;101352.22;4354897;32;32579;-64
2022/12/18 06:50:47;;;;;;;;;;;;;;;5.88;39.94;101348.94;4358726;32;34869;-64
2022/12/18 06:53:14;;;;;;;;;;;;;;;6.23;39.42;101339.91;4347390;32;34887;-63
2022/12/18 06:55:42;;;;;;;;;;;;;;;6.84;37.71;101345.00;4357933;32;34686;-64
2022/12/18 06:58:09;;;;;;;;;;;;;;;6.83;37.13;101341.47;4353661;32;32913;-63
2022/12/18 07:00:37;;;;;;;;;;;;;;;6.70;37.82;101354.31;4350347;32;35457;-65
2022/12/18 07:03:05;;;;;;;;;;;;;;;7.25;36.67;101356.88;4354885;32;33652;-64
2022/12/18 07:05:32;;;;;;;;;;;;;;;7.72;35.69;101356.94;4355114;32;34315;-66
2022/12/18 07:07:59;;;;;;;;;;;;;;;7.78;35.58;101358.53;4351876;32;34310;-66
2022/12/18 07:10:26;;;;;;;;;;;;;;;7.98;35.39;101358.63;4357118;32;34956;-65
2022/12/18 07:12:54;;;;;;;;;;;;;;;8.02;35.18;101370.03;4351797;32;33568;-64
2022/12/18 07:15:21;;;;;;;;;;;;;;;7.91;35.28;101374.00;4351715;32;35366;-64
2022/12/18 07:17:48;;;;;;;;;;;;;;;8.21;34.81;101378.22;4355678;32;33954;-64
2022/12/18 07:20:15;;;;;;;;;;;;;;;8.54;34.42;101376.91;4349246;32;34434;-65
2022/12/18 07:22:43;;;;;;;;;;;;;;;8.46;34.60;101379.00;4354528;32;31804;-65
2022/12/18 07:25:10;;;;;;;;;;;;;;;8.61;34.62;101389.06;4349608;32;33506;-64
2022/12/18 07:27:37;;;;;;;;;;;;;;;9.03;33.59;101392.72;4356024;32;34347;-64
2022/12/18 07:30:05;;;;;;;;;;;;;;;9.31;33.15;101392.41;4355653;32;32816;-65
2022/12/18 07:32:33;;;;;;;;;;;;;;;9.62;33.89;101407.09;4354756;32;31864;-66
2022/12/18 07:35:00;;;;;;;;;;;;;;;11.18;30.43;101405.03;4358562;32;34054;-65
2022/12/18 07:37:27;;;;;;;;;;;;;;;11.29;30.24;101408.03;4356647;32;34002;-64
2022/12/18 07:39:55;;;;;;;;;;;;;;;11.36;29.60;101406.78;4357672;32;35534;-64
2022/12/18 07:42:31;;;;;;;;;;;;;;;12.08;29.22;101412.84;4352194;32;33623;-65
2022/12/18 07:44:59;;;;;;;;;;;;;;;12.89;28.14;101416.31;4352671;32;34248;-64
2022/12/18 07:47:27;;;;;;;;;;;;;;;12.99;27.31;101412.13;4355869;32;33996;-64
2022/12/18 07:49:55;;;;;;;;;;;;;;;12.18;28.40;101411.38;4350634;32;33806;-66
2022/12/18 07:52:23;;;;;;;;;;;;;;;11.78;29.12;101415.31;4352162;32;33713;-65
2022/12/18 07:54:52;;;;;;;;;;;;;;;11.27;30.89;101438.53;4355390;32;34279;-65
2022/12/18 07:57:19;;;;;;;;;;;;;;;11.21;30.85;101438.84;4358112;32;34349;-65
2022/12/18 08:00:07;;;;;;;;;;;;;;;11.61;30.60;101438.53;4356045;32;34273;-65
2022/12/18 08:02:38;;;;;;;;;;;;;;;11.96;30.30;101441.19;4355634;32;33399;-66
2022/12/18 08:05:05;;;;;;;;;;;;;;;12.18;29.72;101443.59;4354425;32;34484;-66
2022/12/18 08:07:33;;;;;;;;;;;;;;;13.10;28.18;101448.28;4353200;32;33318;-65
2022/12/18 08:10:00;;;;;;;;;;;;;;;12.86;28.57;101451.44;4355015;32;33997;-65
2022/12/18 08:12:27;;;;;;;;;;;;;;;12.56;28.95;101454.03;4344271;32;31909;-66
2022/12/18 08:14:56;;;;;;;;;;;;;;;12.53;28.67;101462.28;4355494;32;34245;-65
2022/12/18 08:17:23;;;;;;;;;;;;;;;11.90;29.92;101457.63;4355114;32;34342;-65
2022/12/18 08:19:50;;;;;;;;;;;;;;;11.38;31.53;101466.53;4354513;32;32995;-65
2022/12/18 08:22:17;;;;;;;;;;;;;;;12.34;29.96;101467.78;4359758;32;33993;-65
2022/12/18 08:24:45;;;;;;;;;;;;;;;12.89;28.39;101461.16;4357807;32;35421;-66
2022/12/18 08:27:12;;;;;;;;;;;;;;;12.40;29.58;101469.28;4352606;32;35007;-65
2022/12/18 08:29:55;;;;;;;;;;;;;;;12.88;28.30;101464.78;4358019;32;33837;-67
2022/12/18 08:32:24;;;;;;;;;;;;;;;13.03;28.26;101466.56;4359247;32;34621;-66
2022/12/18 08:34:51;;;;;;;;;;;;;;;12.53;29.05;101478.38;4357949;32;34108;-65
2022/12/18 08:37:18;;;;;;;;;;;;;;;12.98;28.56;101474.06;4357597;32;34180;-65
2022/12/18 08:39:46;;;;;;;;;;;;;;;13.64;27.75;101476.47;4360227;32;34206;-65
2022/12/18 08:44:59;;;;;;;;;;;;;;;13.84;27.06;101472.56;4356502;32;33664;-66
2022/12/18 08:47:26;;;;;;;;;;;;;;;13.52;26.97;101475.38;4353745;32;34477;-65
2022/12/18 08:49:53;;;;;;;;;;;;;;;12.29;29.12;101470.69;4359472;32;34776;-64
2022/12/18 08:52:21;;;;;;;;;;;;;;;11.37;31.62;101472.84;4361052;32;31876;-64
2022/12/18 08:54:48;;;;;;;;;;;;;;;12.09;29.32;101471.78;4359582;32;34415;-65
2022/12/18 08:57:15;;;;;;;;;;;;;;;12.00;29.96;101472.28;4360365;32;34179;-65
2022/12/18 08:59:43;;;;;;;;;;;;;;;13.70;27.82;101470.69;4359441;32;32621;-68
2022/12/18 09:02:10;;;;;;;;;;;;;;;14.51;26.10;101481.00;4352723;32;34537;-65
2022/12/18 09:04:39;;;;;;;;;;;;;;;14.39;26.54;101479.91;4360066;32;34559;-66
2022/12/18 09:07:07;;;;;;;;;;;;;;;15.90;24.98;101494.28;4357702;32;32665;-66
2022/12/18 09:09:34;;;;;;;;;;;;;;;16.65;22.98;101495.19;4358488;32;34043;-65
2022/12/18 09:12:01;;;;;;;;;;;;;;;15.52;25.36;101495.03;4354791;32;32982;-66
2022/12/18 09:14:29;;;;;;;;;;;;;;;14.99;25.72;101500.34;4356595;32;35718;-66
2022/12/18 09:16:56;;;;;;;;;;;;;;;14.74;25.56;101495.69;4353835;32;34380;-66
2022/12/18 09:19:23;;;;;;;;;;;;;;;16.15;24.21;101494.28;4361668;32;34167;-65
2022/12/18 09:21:50;;;;;;;;;;;;;;;17.30;22.48;101491.31;4357955;32;33126;-65
2022/12/18 09:24:18;;;;;;;;;;;;;;;17.48;22.55;101493.63;4360024;32;33802;-68
2022/12/18 09:26:45;;;;;;;;;;;;;;;16.73;23.17;101495.53;4361377;32;35365;-65
2022/12/18 09:29:14;;;;;;;;;;;;;;;16.73;23.08;101491.97;4359760;32;33114;-67
2022/12/18 09:31:42;;;;;;;;;;;;;;;16.21;23.37;101492.97;4355305;32;33687;-68
2022/12/18 09:34:10;;;;;;;;;;;;;;;16.51;22.63;101500.75;4359417;32;34038;-66
2022/12/18 09:36:37;;;;;;;;;;;;;;;14.60;24.60;101499.25;4350799;32;35805;-67
2022/12/18 09:39:05;;;;;;;;;;;;;;;14.27;25.52;101499.53;4353676;32;33700;-67
2022/12/18 09:41:45;;;;;;;;;;;;;;;15.70;24.20;101495.66;4350607;32;34000;-67
2022/12/18 09:44:16;;;;;;;;;;;;;;;16.71;23.34;101488.50;4353183;32;35134;-70
2022/12/18 09:46:44;;;;;;;;;;;;;;;16.77;23.51;101493.47;4355249;32;33811;-66
2022/12/18 09:49:12;;;;;;;;;;;;;;;16.57;23.37;101489.50;4352217;32;33910;-68
2022/12/18 09:51:43;;;;;;;;;;;;;;;16.60;23.06;101485.72;4349231;32;34739;-67
2022/12/18 09:54:30;;;;;;;;;;;;;;;16.28;23.39;101487.06;4348470;32;33838;-67
2022/12/18 09:56:58;;;;;;;;;;;;;;;16.59;22.64;101492.94;4355475;32;34113;-67
2022/12/18 09:59:27;;;;;;;;;;;;;;;17.16;22.50;101494.22;4352309;32;34255;-67
2022/12/18 10:01:54;;;;;;;;;;;;;;;16.29;23.40;101490.59;4338189;32;32803;-68
2022/12/18 10:04:22;;;;;;;;;;;;;;;16.13;23.40;101487.25;4355161;32;33432;-69
2022/12/18 10:06:49;;;;;;;;;;;;;;;16.31;23.08;101496.78;4350549;32;34150;-67
2022/12/18 10:09:25;;;;;;;;;;;;;;;15.32;24.54;101502.66;4354278;32;34025;-66
2022/12/18 10:12:09;;;;;;;;;;;;;;;16.76;22.59;101492.62;4352338;32;33450;-67
2022/12/18 10:14:41;;;;;;;;;;;;;;;17.89;21.74;101491.34;4351572;32;32756;-67
2022/12/18 10:17:09;;;;;;;;;;;;;;;18.74;20.34;101485.50;4349460;32;32870;-68
2022/12/18 10:19:40;;;;;;;;;;;;;;;20.22;18.99;101495.63;4347537;32;34508;-69
2022/12/18 10:22:15;;;;;;;;;;;;;;;21.66;17.28;101500.78;4353216;32;32904;-68
2022/12/18 10:24:57;;;;;;;;;;;;;;;21.73;17.14;101485.56;4349588;32;35312;-67
2022/12/18 10:27:26;;;;;;;;;;;;;;;22.07;16.82;101480.50;4350193;32;34175;-67
2022/12/18 10:29:53;;;;;;;;;;;;;;;21.70;17.14;101483.12;4352191;32;32914;-68
2022/12/18 10:32:24;;;;;;;;;;;;;;;22.55;16.02;101477.63;4353670;32;32958;-68
2022/12/18 10:34:54;;;;;;;;;;;;;;;22.79;15.34;101474.37;4350218;32;33065;-65
2022/12/18 10:37:28;;;;;;;;;;;;;;;22.20;16.11;101480.22;4353016;32;34563;-70
2022/12/18 10:40:09;;;;;;;;;;;;;;;20.86;17.42;101473.56;4340672;32;32652;-66
2022/12/18 10:42:37;;;;;;;;;;;;;;;19.11;19.49;101487.03;4353545;32;34427;-70
2022/12/18 10:45:07;;;;;;;;;;;;;;;18.67;19.43;101492.38;4350000;32;33383;-69
2022/12/18 10:47:34;;;;;;;;;;;;;;;17.94;20.81;101488.25;4353084;32;35342;-68
2022/12/18 10:50:02;;;;;;;;;;;;;;;17.83;20.59;101474.69;4350803;32;34797;-67
2022/12/18 10:52:29;;;;;;;;;;;;;;;18.53;20.42;101484.50;4350256;32;31693;-70
2022/12/18 10:54:58;;;;;;;;;;;;;;;18.69;20.51;101490.41;4339978;32;32717;-68
2022/12/18 10:57:25;;;;;;;;;;;;;;;19.24;19.71;101493.16;4339454;32;34524;-70
2022/12/18 10:59:54;;;;;;;;;;;;;;;20.40;18.72;101483.12;4352498;32;33424;-67
2022/12/18 11:02:33;;;;;;;;;;;;;;;20.93;18.21;101484.81;4333973;32;31783;-67
2022/12/18 11:05:01;;;;;;;;;;;;;;;20.96;18.03;101480.91;4350334;32;32418;-66
2022/12/18 11:07:47;;;;;;;;;;;;;;;19.74;19.66;101474.44;4334496;32;32465;-67
2022/12/18 11:10:18;;;;;;;;;;;;;;;20.09;19.55;101468.66;4350390;32;34509;-67
2022/12/18 11:12:46;;;;;;;;;;;;;;;20.45;19.31;101464.56;4354887;32;33440;-66
2022/12/18 11:15:15;;;;;;;;;;;;;;;20.42;19.16;101458.53;4354223;32;34201;-66
2022/12/18 11:17:42;;;;;;;;;;;;;;;20.00;19.29;101464.91;4350699;32;33239;-69
2022/12/18 11:20:28;;;;;;;;;;;;;;;20.33;19.03;101465.66;4352226;32;34327;-68
2022/12/18 11:22:57;;;;;;;;;;;;;;;20.09;19.09;101462.38;4350216;32;31449;-70
2022/12/18 11:25:24;;;;;;;;;;;;;;;19.73;19.10;101451.00;4335057;32;34948;-68
2022/12/18 11:28:06;;;;;;;;;;;;;;;18.04;21.17;101461.31;4348859;32;35012;-68
2022/12/18 11:30:36;;;;;;;;;;;;;;;17.80;20.21;101458.69;4350771;32;34227;-66
2022/12/18 11:33:09;;;;;;;;;;;;;;;16.90;21.29;101456.44;4351868;32;33207;-69
2022/12/18 11:35:40;;;;;;;;;;;;;;;16.86;21.43;101465.78;4351546;32;33028;-66
2022/12/18 11:38:12;;;;;;;;;;;;;;;16.23;22.15;101462.19;4352483;32;33414;-69
2022/12/18 11:40:40;;;;;;;;;;;;;;;15.46;22.65;101461.22;4351624;32;34518;-69
2022/12/18 11:43:27;;;;;;;;;;;;;;;14.98;23.31;101454.59;4351360;32;34227;-67
2022/12/18 11:46:06;;;;;;;;;;;;;;;14.84;23.69;101463.59;4348312;32;34018;-66
2022/12/18 11:48:38;;;;;;;;;;;;;;;14.07;24.72;101459.53;4351187;32;33826;-67
2022/12/18 11:51:10;;;;;;;;;;;;;;;13.96;25.02;101454.78;4350346;32;34240;-69
2022/12/18 11:53:38;;;;;;;;;;;;;;;13.77;25.37;101449.66;4353887;32;34731;-66
2022/12/18 11:56:05;;;;;;;;;;;;;;;13.26;26.53;101455.41;4351462;32;33942;-67
2022/12/18 11:58:33;;;;;;;;;;;;;;;12.75;26.57;101449.38;4349493;32;34136;-68
2022/12/18 12:01:06;;;;;;;;;;;;;;;12.96;26.22;101446.38;4350304;32;32704;-66
2022/12/18 12:03:45;;;;;;;;;;;;;;;12.19;26.59;101445.31;4348954;32;34280;-69
2022/12/18 12:06:23;;;;;;;;;;;;;;;12.11;27.14;101437.69;4349270;32;34375;-66
2022/12/18 12:08:51;;;;;;;;;;;;;;;12.41;26.22;101442.31;4350545;32;33370;-66
2022/12/18 12:11:22;;;;;;;;;;;;;;;12.56;26.29;101441.47;4351048;32;33623;-68
2022/12/18 12:14:00;;;;;;;;;;;;;;;12.19;26.91;101442.63;4354131;32;33204;-68
2022/12/18 12:16:27;;;;;;;;;;;;;;;12.43;26.44;101444.94;4337630;32;35398;-66
2022/12/18 12:19:03;;;;;;;;;;;;;;;12.31;26.72;101444.66;4348133;32;35931;-66
2022/12/18 12:21:37;;;;;;;;;;;;;;;12.18;26.45;101443.59;4343738;32;35099;-66
2022/12/18 12:24:15;;;;;;;;;;;;;;;12.02;27.30;101443.56;4363313;32;33210;-67
2022/12/18 12:26:45;;;;;;;;;;;;;;;11.75;27.43;101445.88;4346243;32;34117;-65
2022/12/18 12:29:22;;;;;;;;;;;;;;;12.12;26.93;101441.25;4353457;32;35252;-68
2022/12/18 12:32:08;;;;;;;;;;;;;;;11.99;27.27;101450.91;4355454;32;34026;-68
2022/12/18 12:34:48;;;;;;;;;;;;;;;11.65;27.50;101449.97;4359519;32;32748;-67
2022/12/18 12:37:18;;;;;;;;;;;;;;;11.69;27.66;101453.38;4360897;32;35051;-69
2022/12/18 12:39:46;;;;;;;;;;;;;;;11.61;28.15;101451.06;4361848;32;34465;-68
2022/12/18 12:45:03;;;;;;;;;;;;;;;11.70;27.88;101447.91;4349623;32;33030;-66
2022/12/18 12:47:35;;;;;;;;;;;;;;;11.55;27.89;101451.38;4344699;32;34390;-66
2022/12/18 12:50:04;;;;;;;;;;;;;;;11.62;27.56;101453.69;4344890;32;35660;-66
2022/12/18 12:52:35;;;;;;;;;;;;;;;11.64;27.89;101467.00;4361684;32;33325;-66
2022/12/18 12:55:03;;;;;;;;;;;;;;;11.71;27.75;101471.09;4341668;32;33299;-68
2022/12/18 12:57:33;;;;;;;;;;;;;;;11.46;28.25;101481.34;4337762;32;35307;-67
2022/12/18 13:00:00;;;;;;;;;;;;;;;11.45;28.05;101482.31;4354083;32;33889;-68
2022/12/18 13:02:39;;;;;;;;;;;;;;;11.22;28.34;101478.09;4351835;32;34141;-67
2022/12/18 13:05:18;;;;;;;;;;;;;;;11.04;29.54;101488.78;4351567;32;33598;-66